Cytokinetics Inc (NASDAQ:CYTK)

CAPS Rating: 3 out of 5

A biopharmaceutical company, focused on developing small molecule therapeutics for the treatment of cardiovascular diseases and cancer.

Results 1 - 99 of 191 : 1 2 Next »
Top
Pick
Member Name Member
Rating
Start
Date
Call Time
Frame
Start
Price
Stock
Gain
Index
Gain
Score Commentary
hayrettin 69.94 10/13/2014 Outperform 5Y $3.37 +2.97% +3.04% -0.07 0 Comment
Almostperfect1 < 20 10/13/2014 Outperform 5Y $3.21 +8.10% +2.94% +5.16 0 Comment
andressiimon 90.32 9/29/2014 Underperform 3M $3.68 -5.71% -0.91% +4.80 0 Comment
ptanabe 69.74 9/9/2014 Outperform 5Y $3.67 -5.51% -2.13% -3.38 1 Comment
GyroDynasty 98.67 7/21/2014 Outperform 5Y $4.25 -18.35% -0.64% -17.71 0 Comment
OKwarrior 38.99 6/6/2014 Outperform 5Y $4.88 -28.89% +0.49% -29.38 1 Comment
ArmyRob 69.04 5/7/2014 Underperform 5Y $4.14 -16.18% +4.43% +20.61 0 Comment
foufou1971 70.00 4/28/2014 Outperform 1Y $4.35 -20.23% +5.37% -25.60 0 Comment
AsianMatter < 20 4/28/2014 Outperform 3W $4.58 -24.24% +4.69% -28.92 0 Comment
portefeuille2 99.66 4/25/2014 Outperform 5Y $4.91 -29.26% +4.95% -34.21 0 Comment
peregrine 96.91 4/25/2014 Outperform 5Y $5.07 -31.56% +5.23% -36.79 0 Comment
SandmanKy 93.99 4/25/2014 Outperform 5Y $5.01 -30.73% +4.98% -35.71 0 Comment
DoubleBagel 53.94 4/25/2014 Outperform 5Y $5.22 -33.52% +4.56% -38.08 0 Comment
portefeuille 99.66 4/16/2014 Outperform 5Y $8.95 -61.23% +5.58% -66.81 0 Comment
TerryFool 52.43 4/15/2014 Outperform 5Y $8.94 -61.19% +7.52% -68.71 1 Comment
TerryHoodSr 62.82 4/15/2014 Outperform 5Y $8.94 -61.19% +6.85% -68.03 1 Comment
msb09 < 20 4/2/2014 Outperform 3M $9.79 -64.56% +3.88% -68.44 0 Comment
Haugurafpeningum 30.15 3/31/2014 Outperform 5Y $9.20 -62.28% +4.91% -67.20 0 Comment
IVolStrategy < 20 3/26/2014 Outperform 1Y $9.02 -61.53% +4.70% -66.23 0 Comment
BioForcePicks1 92.45 3/25/2014 Outperform 3M $8.94 -61.19% +5.20% -66.39 0 Comment
Dmaral < 20 2/27/2014 Outperform 5Y $10.31 -66.34% +5.69% -72.03 0 Comment
Plasmidologist 54.35 1/16/2014 Outperform 5Y $9.27 -62.57% +6.44% -69.01 0 Comment
This player feels very strongly about this pick and has marked it a Top Pick. Top Picks do not affect a player’s score. s2dbaker 76.27 1/10/2014 Outperform 5Y $9.22 -62.36% +6.64% -69.00 1 Comment
flypower 98.53 1/7/2014 Outperform 5Y $7.30 -52.47% +6.95% -59.42 0 Comment
HoosierDoozer < 20 12/23/2013 Outperform 5Y $6.60 -47.42% +7.27% -54.70 0 Comment
grahamfordummies 68.95 8/8/2013 12/4/2013 Outperform 3Y $10.21 -66.01% +15.20% -81.22 1 Comment
cavemantrader 53.64 11/7/2013 Outperform 5Y $6.33 -45.18% +11.91% -57.09 0 Comment
mandynshane < 20 10/8/2013 Outperform NS $6.69 -48.13% +17.42% -65.55 0 Comment
ImFive 34.48 10/7/2013 Outperform 5Y $7.03 -50.64% +16.96% -67.60 0 Comment
ralonsot < 20 10/2/2013 Outperform 5Y $7.38 -52.98% +16.00% -68.98 0 Comment
withoutDoubt 21.69 9/5/2013 Outperform 5Y $8.32 -58.32% +17.88% -76.20 0 Comment
fatmoneyrz 97.95 9/3/2013 Outperform 5Y $7.79 -55.46% +18.47% -73.93 0 Comment
KidJones 97.09 9/3/2013 Outperform 5Y $8.62 -59.74% +18.51% -78.26 0 Comment
Greeniesnack 53.44 8/23/2013 Outperform 5Y $11.11 -68.77% +17.57% -86.34 0 Comment
FoolPep 33.47 8/22/2013 Outperform 3M $11.60 -70.09% +18.75% -88.84 0 Comment
SCOTTRHUETTLCPA 65.75 8/19/2013 Underperform 3W $10.18 -65.91% +18.55% +84.46 0 Comment
rknapton < 20 8/7/2013 Underperform 5Y $10.55 -67.11% +15.74% +82.85 1 Comment
ababrmon 93.25 7/31/2013 Outperform 3M $12.47 -72.17% +16.09% -88.26 0 Comment
efarev 98.93 2/4/2011 7/26/2013 Outperform 5Y $11.16 -68.91% +49.64% -118.55 0 Comment
ronmcpeek < 20 7/19/2013 Outperform 5Y $13.43 -74.16% +16.20% -90.36 0 Comment
TMFEZMagic 20.60 7/15/2013 Underperform 5Y $13.76 -74.78% +16.62% +91.40 0 Comment
batman35 25.94 7/12/2013 Outperform 1Y $13.60 -74.49% +16.91% -91.39 0 Comment
kaletbaldrich27 < 20 7/10/2013 Outperform 1Y $13.30 -73.91% +18.82% -92.73 1 Comment
OriginalBarnacle 80.01 7/1/2013 Underperform 1Y $11.58 -70.03% +21.43% +91.47 0 Comment
Jsams82 < 20 7/1/2013 Outperform 1Y $11.58 -70.03% +21.43% -91.47 0 Comment
JJ68 < 20 6/26/2013 Outperform 5Y $12.10 -71.33% +22.69% -94.03 0 Comment
ytryan 55.46 6/19/2013 Outperform 5Y $11.28 -69.24% +18.92% -88.16 0 Comment
Scraming < 20 6/19/2013 Outperform 3M $11.58 -70.03% +18.30% -88.33 0 Comment
saab93boi < 20 6/18/2013 Underperform 5Y $11.10 -68.74% +18.03% +86.77 0 Comment
shonny2 < 20 5/22/2013 Outperform 5Y $6.90 -49.71% +16.80% -66.50 0 Comment
OttoBismarck 99.88 5/10/2013 Underperform 5Y $6.42 -45.95% +20.14% +66.09 0 Comment
ava5147 < 20 2/19/2013 Outperform 1Y $6.24 -44.39% +28.52% -72.91 0 Comment
mcdbenbe 25.71 2/19/2013 Outperform 5Y $6.24 -44.39% +28.52% -72.91 0 Comment
montys3 < 20 1/22/2013 Outperform 5Y $5.99 -42.03% +31.56% -73.59 0 Comment
Spyrig < 20 12/17/2012 Outperform 5Y $4.02 -13.68% +37.45% -51.13 0 Comment
mdrnsamurai < 20 12/12/2012 Outperform 5Y $4.29 -19.11% +35.99% -55.10 0 Comment
jack0071 71.41 11/27/2012 Outperform 3Y $4.20 -17.38% +38.97% -56.35 0 Comment
danculbertson 57.88 10/15/2012 Outperform 3M $4.41 -21.32% +36.30% -57.61 0 Comment
millerto 44.72 8/31/2012 Outperform 1Y $4.58 -24.19% +38.94% -63.13 0 Comment
IdahoInvestor 29.09 8/8/2012 Underperform 5Y $4.00 -13.27% +39.36% +52.63 0 Comment
iadops40 35.81 7/13/2012 Outperform 1Y $4.02 -13.68% +46.29% -59.97 0 Comment
THERULERGOD < 20 7/11/2012 Outperform 5Y $4.26 -18.54% +45.91% -64.45 0 Comment
greentah 59.36 7/9/2012 Outperform 5Y $4.32 -19.68% +44.64% -64.32 0 Comment
HongHue < 20 7/6/2012 Outperform 1Y $3.90 -11.03% +44.55% -55.57 0 Comment
Harlequinvestor 40.34 6/18/2012 Outperform 1Y $5.16 -32.75% +46.59% -79.35 0 Comment
ConradMike55 < 20 5/10/2012 Outperform 3W $5.58 -37.81% +43.27% -81.08 0 Comment
Arsenal1860 < 20 5/10/2012 Outperform 5Y $5.58 -37.81% +43.27% -81.08 0 Comment
MythQuinn 81.58 5/8/2012 Outperform 3Y $5.52 -37.14% +43.44% -80.57 0 Comment
stainsolution 21.66 5/8/2012 Outperform 5Y $5.70 -39.12% +43.69% -82.81 0 Comment
foolbull12 < 20 5/8/2012 Outperform 5Y $5.52 -37.14% +43.85% -80.99 0 Comment
RBuskey106 40.06 3/15/2012 Outperform 5Y $7.14 -51.40% +39.30% -90.70 1 Comment
TechSci 20.03 3/6/2012 Outperform 5Y $6.54 -46.94% +45.11% -92.05 0 Comment
mhy729 29.83 2/17/2011 2/13/2012 Outperform 1Y $9.18 -62.19% +46.46% -108.65 0 Comment
drt2202 < 20 12/29/2011 Outperform 5Y $5.94 -41.58% +56.36% -97.94 0 Comment
CaptainVegetable < 20 8/5/2011 Outperform 5Y $7.14 -51.40% +61.05% -112.45 0 Comment
pobeda79 32.42 6/20/2011 Outperform 5Y $6.90 -49.71% +54.65% -104.36 0 Comment
amsteinberg86 < 20 5/31/2011 Outperform 3Y $8.64 -59.84% +45.30% -105.14 0 Comment
codyjr002 98.33 5/27/2011 Outperform 5Y $8.64 -59.84% +46.68% -106.52 0 Comment
Thleter 46.30 5/24/2011 Outperform 1Y $8.10 -57.16% +48.38% -105.54 1 Comment
ag77840 23.58 5/18/2011 Outperform 5Y $8.61 -59.70% +45.94% -105.64 0 Comment
Doggity 69.68 5/17/2011 Outperform 5Y $8.64 -59.84% +47.58% -107.42 0 Comment
Euro247 37.21 5/13/2011 Outperform 5Y $8.79 -60.52% +46.28% -106.80 0 Comment
inouye 56.55 5/3/2011 Outperform 1Y $8.52 -59.27% +44.45% -103.72 0 Comment
NVTreasureHunter 29.06 4/27/2011 Outperform NS $9.00 -61.44% +45.00% -106.44 0 Comment
Squeege1981 66.29 4/18/2011 Outperform 5Y $8.64 -59.84% +49.95% -109.79 0 Comment
reachmygoals1 < 20 4/11/2011 Outperform 3M $8.94 -61.19% +47.23% -108.42 0 Comment
limeonaire 98.35 4/4/2011 Outperform 5Y $9.00 -61.44% +46.76% -108.20 0 Comment
ajhers2 < 20 3/25/2011 Outperform 5Y $8.46 -58.98% +48.53% -107.51 0 Comment
lombardy 31.85 3/22/2011 Outperform 5Y $7.62 -54.46% +50.96% -105.42 0 Comment
binyalazar < 20 3/10/2011 Outperform 5Y $8.99 -61.42% +49.96% -111.38 0 Comment
WorldOnFire 28.43 2/23/2011 Outperform 3W $8.70 -60.11% +48.63% -108.74 0 Comment
HackInvestor < 20 2/22/2011 Outperform 5Y $9.12 -61.95% +47.10% -109.05 0 Comment
cheaply 21.01 2/10/2011 Outperform 1Y $11.16 -68.91% +48.80% -117.70 1 Comment
phineas333 30.96 2/10/2011 Outperform 5Y $11.04 -68.57% +48.80% -117.37 0 Comment
Cjbrat1 29.38 1/10/2011 Outperform 5Y $12.36 -71.93% +54.70% -126.63 0 Comment
atlasbooks 88.10 1/4/2011 Outperform 3M $12.96 -73.23% +53.79% -127.01 0 Comment
FinanceGuy58 68.81 12/20/2010 Outperform 5Y $13.14 -73.59% +57.11% -130.70 0 Comment
Okcfirefighter < 20 12/17/2010 Outperform 5Y $12.72 -72.72% +57.49% -130.21 0 Comment
smcnei2 31.13 12/13/2010 Outperform NS $13.80 -74.86% +56.59% -131.45 0 Comment
Results 1 - 99 of 191 : 1 2 Next »

Featured Broker Partners


Advertisement